sensor_id;sensor_type;location;lat;lon;timestamp;P1;durP1;ratioP1;P2;durP2;ratioP2
37843;SDS011;63793;57.632;18.292;2023-11-21T00:00:35;4.70;;;3.65;;
37843;SDS011;63793;57.632;18.292;2023-11-21T00:03:02;9.20;;;4.45;;
37843;SDS011;63793;57.632;18.292;2023-11-21T00:05:30;7.35;;;5.20;;
37843;SDS011;63793;57.632;18.292;2023-11-21T00:07:57;6.00;;;4.53;;
37843;SDS011;63793;57.632;18.292;2023-11-21T00:10:24;5.90;;;4.10;;
37843;SDS011;63793;57.632;18.292;2023-11-21T00:12:51;6.03;;;4.03;;
37843;SDS011;63793;57.632;18.292;2023-11-21T00:15:17;7.63;;;4.88;;
37843;SDS011;63793;57.632;18.292;2023-11-21T00:17:45;5.97;;;4.20;;
37843;SDS011;63793;57.632;18.292;2023-11-21T00:20:13;7.10;;;4.10;;
37843;SDS011;63793;57.632;18.292;2023-11-21T00:22:40;4.45;;;3.70;;
37843;SDS011;63793;57.632;18.292;2023-11-21T00:25:08;6.75;;;3.88;;
37843;SDS011;63793;57.632;18.292;2023-11-21T00:27:36;5.57;;;4.40;;
37843;SDS011;63793;57.632;18.292;2023-11-21T00:30:03;5.00;;;4.00;;
37843;SDS011;63793;57.632;18.292;2023-11-21T00:32:35;4.57;;;3.70;;
37843;SDS011;63793;57.632;18.292;2023-11-21T00:35:03;4.80;;;4.25;;
37843;SDS011;63793;57.632;18.292;2023-11-21T00:37:30;6.18;;;4.20;;
37843;SDS011;63793;57.632;18.292;2023-11-21T00:39:58;5.18;;;4.13;;
37843;SDS011;63793;57.632;18.292;2023-11-21T00:42:26;5.03;;;3.90;;
37843;SDS011;63793;57.632;18.292;2023-11-21T00:44:53;4.63;;;3.40;;
37843;SDS011;63793;57.632;18.292;2023-11-21T00:47:20;5.65;;;4.18;;
37843;SDS011;63793;57.632;18.292;2023-11-21T00:49:49;6.63;;;4.00;;
37843;SDS011;63793;57.632;18.292;2023-11-21T00:52:16;7.28;;;4.03;;
37843;SDS011;63793;57.632;18.292;2023-11-21T00:54:43;5.85;;;4.25;;
37843;SDS011;63793;57.632;18.292;2023-11-21T00:57:11;9.23;;;4.43;;
37843;SDS011;63793;57.632;18.292;2023-11-21T00:59:38;7.32;;;4.95;;
37843;SDS011;63793;57.632;18.292;2023-11-21T01:02:06;5.20;;;4.10;;
37843;SDS011;63793;57.632;18.292;2023-11-21T01:04:36;6.82;;;5.03;;
37843;SDS011;63793;57.632;18.292;2023-11-21T01:07:04;6.43;;;4.63;;
37843;SDS011;63793;57.632;18.292;2023-11-21T01:09:31;7.22;;;4.85;;
37843;SDS011;63793;57.632;18.292;2023-11-21T01:11:59;6.68;;;4.43;;
37843;SDS011;63793;57.632;18.292;2023-11-21T01:14:26;6.53;;;4.63;;
37843;SDS011;63793;57.632;18.292;2023-11-21T01:16:53;6.05;;;3.72;;
37843;SDS011;63793;57.632;18.292;2023-11-21T01:19:20;5.22;;;4.47;;
37843;SDS011;63793;57.632;18.292;2023-11-21T01:21:48;6.13;;;4.22;;
37843;SDS011;63793;57.632;18.292;2023-11-21T01:24:15;6.15;;;4.43;;
37843;SDS011;63793;57.632;18.292;2023-11-21T01:26:42;6.25;;;4.63;;
37843;SDS011;63793;57.632;18.292;2023-11-21T01:29:09;5.22;;;3.92;;
37843;SDS011;63793;57.632;18.292;2023-11-21T01:31:36;5.72;;;3.70;;
37843;SDS011;63793;57.632;18.292;2023-11-21T01:34:03;5.75;;;3.72;;
37843;SDS011;63793;57.632;18.292;2023-11-21T01:36:31;6.97;;;4.57;;
37843;SDS011;63793;57.632;18.292;2023-11-21T01:38:59;6.47;;;4.40;;
37843;SDS011;63793;57.632;18.292;2023-11-21T01:41:26;9.20;;;6.38;;
37843;SDS011;63793;57.632;18.292;2023-11-21T01:43:57;4.90;;;4.10;;
37843;SDS011;63793;57.632;18.292;2023-11-21T01:46:24;6.65;;;4.18;;
37843;SDS011;63793;57.632;18.292;2023-11-21T01:48:51;5.68;;;4.60;;
37843;SDS011;63793;57.632;18.292;2023-11-21T01:51:19;10.10;;;5.47;;
37843;SDS011;63793;57.632;18.292;2023-11-21T01:53:46;9.15;;;5.40;;
37843;SDS011;63793;57.632;18.292;2023-11-21T01:56:14;9.65;;;4.88;;
37843;SDS011;63793;57.632;18.292;2023-11-21T01:58:42;8.95;;;5.93;;
37843;SDS011;63793;57.632;18.292;2023-11-21T02:01:09;8.38;;;5.55;;
37843;SDS011;63793;57.632;18.292;2023-11-21T02:03:36;9.07;;;5.82;;
37843;SDS011;63793;57.632;18.292;2023-11-21T02:06:04;8.98;;;5.93;;
37843;SDS011;63793;57.632;18.292;2023-11-21T02:08:31;7.60;;;5.28;;
37843;SDS011;63793;57.632;18.292;2023-11-21T02:10:59;8.23;;;4.95;;
37843;SDS011;63793;57.632;18.292;2023-11-21T02:13:26;9.68;;;5.57;;
37843;SDS011;63793;57.632;18.292;2023-11-21T02:15:53;6.97;;;5.25;;
37843;SDS011;63793;57.632;18.292;2023-11-21T02:18:20;9.88;;;5.60;;
37843;SDS011;63793;57.632;18.292;2023-11-21T02:20:48;6.78;;;5.30;;
37843;SDS011;63793;57.632;18.292;2023-11-21T02:23:15;10.68;;;5.28;;
37843;SDS011;63793;57.632;18.292;2023-11-21T02:25:42;8.23;;;5.38;;
37843;SDS011;63793;57.632;18.292;2023-11-21T02:28:09;9.30;;;5.82;;
37843;SDS011;63793;57.632;18.292;2023-11-21T02:30:39;5.45;;;4.78;;
37843;SDS011;63793;57.632;18.292;2023-11-21T02:33:06;7.47;;;5.05;;
37843;SDS011;63793;57.632;18.292;2023-11-21T02:35:33;6.50;;;4.65;;
37843;SDS011;63793;57.632;18.292;2023-11-21T02:38:01;6.22;;;5.00;;
37843;SDS011;63793;57.632;18.292;2023-11-21T02:40:29;7.00;;;4.40;;
37843;SDS011;63793;57.632;18.292;2023-11-21T02:42:56;9.02;;;5.32;;
37843;SDS011;63793;57.632;18.292;2023-11-21T02:45:26;6.78;;;4.25;;
37843;SDS011;63793;57.632;18.292;2023-11-21T02:47:52;5.28;;;4.00;;
37843;SDS011;63793;57.632;18.292;2023-11-21T02:50:20;5.55;;;4.15;;
37843;SDS011;63793;57.632;18.292;2023-11-21T02:52:50;4.28;;;3.88;;
37843;SDS011;63793;57.632;18.292;2023-11-21T02:55:19;7.25;;;3.90;;
37843;SDS011;63793;57.632;18.292;2023-11-21T02:57:45;11.63;;;4.93;;
37843;SDS011;63793;57.632;18.292;2023-11-21T03:00:12;8.93;;;3.85;;
37843;SDS011;63793;57.632;18.292;2023-11-21T03:02:41;7.57;;;4.30;;
37843;SDS011;63793;57.632;18.292;2023-11-21T03:05:09;9.50;;;4.00;;
37843;SDS011;63793;57.632;18.292;2023-11-21T03:07:37;5.85;;;4.55;;
37843;SDS011;63793;57.632;18.292;2023-11-21T03:10:05;6.15;;;3.53;;
37843;SDS011;63793;57.632;18.292;2023-11-21T03:12:36;5.05;;;3.25;;
37843;SDS011;63793;57.632;18.292;2023-11-21T03:15:07;8.60;;;4.97;;
37843;SDS011;63793;57.632;18.292;2023-11-21T03:17:35;5.97;;;3.95;;
37843;SDS011;63793;57.632;18.292;2023-11-21T03:20:03;7.35;;;4.25;;
37843;SDS011;63793;57.632;18.292;2023-11-21T03:22:31;5.38;;;4.05;;
37843;SDS011;63793;57.632;18.292;2023-11-21T03:24:58;9.43;;;4.55;;
37843;SDS011;63793;57.632;18.292;2023-11-21T03:27:26;7.97;;;4.32;;
37843;SDS011;63793;57.632;18.292;2023-11-21T03:29:52;6.30;;;3.78;;
37843;SDS011;63793;57.632;18.292;2023-11-21T03:32:21;8.20;;;5.63;;
37843;SDS011;63793;57.632;18.292;2023-11-21T03:34:58;6.10;;;4.25;;
37843;SDS011;63793;57.632;18.292;2023-11-21T03:37:26;5.63;;;3.60;;
37843;SDS011;63793;57.632;18.292;2023-11-21T03:39:55;7.15;;;4.03;;
37843;SDS011;63793;57.632;18.292;2023-11-21T03:42:23;4.88;;;3.83;;
37843;SDS011;63793;57.632;18.292;2023-11-21T03:44:53;8.68;;;4.45;;
37843;SDS011;63793;57.632;18.292;2023-11-21T03:47:20;10.73;;;4.43;;
37843;SDS011;63793;57.632;18.292;2023-11-21T03:49:47;5.15;;;3.80;;
37843;SDS011;63793;57.632;18.292;2023-11-21T03:52:15;8.38;;;4.88;;
37843;SDS011;63793;57.632;18.292;2023-11-21T03:54:42;6.63;;;4.38;;
37843;SDS011;63793;57.632;18.292;2023-11-21T03:57:10;7.65;;;4.32;;
37843;SDS011;63793;57.632;18.292;2023-11-21T03:59:40;9.23;;;3.78;;
37843;SDS011;63793;57.632;18.292;2023-11-21T04:04:35;6.32;;;4.70;;
37843;SDS011;63793;57.632;18.292;2023-11-21T04:07:03;7.07;;;4.22;;
37843;SDS011;63793;57.632;18.292;2023-11-21T04:09:30;10.15;;;3.80;;
37843;SDS011;63793;57.632;18.292;2023-11-21T04:11:58;3.90;;;3.20;;
37843;SDS011;63793;57.632;18.292;2023-11-21T04:14:25;5.57;;;4.90;;
37843;SDS011;63793;57.632;18.292;2023-11-21T04:16:52;7.68;;;4.03;;
37843;SDS011;63793;57.632;18.292;2023-11-21T04:19:20;5.05;;;3.63;;
37843;SDS011;63793;57.632;18.292;2023-11-21T04:21:47;7.28;;;4.32;;
37843;SDS011;63793;57.632;18.292;2023-11-21T04:24:14;6.43;;;4.43;;
37843;SDS011;63793;57.632;18.292;2023-11-21T04:26:41;6.28;;;4.28;;
37843;SDS011;63793;57.632;18.292;2023-11-21T04:29:08;6.53;;;4.40;;
37843;SDS011;63793;57.632;18.292;2023-11-21T04:31:34;6.03;;;3.90;;
37843;SDS011;63793;57.632;18.292;2023-11-21T04:34:01;5.97;;;4.07;;
37843;SDS011;63793;57.632;18.292;2023-11-21T04:36:30;5.30;;;4.55;;
37843;SDS011;63793;57.632;18.292;2023-11-21T04:38:57;4.45;;;4.00;;
37843;SDS011;63793;57.632;18.292;2023-11-21T04:41:24;5.72;;;4.65;;
37843;SDS011;63793;57.632;18.292;2023-11-21T04:43:51;4.70;;;3.78;;
37843;SDS011;63793;57.632;18.292;2023-11-21T04:46:18;8.15;;;5.10;;
37843;SDS011;63793;57.632;18.292;2023-11-21T04:48:45;5.43;;;3.65;;
37843;SDS011;63793;57.632;18.292;2023-11-21T04:51:13;6.43;;;4.47;;
37843;SDS011;63793;57.632;18.292;2023-11-21T04:53:40;7.30;;;4.93;;
37843;SDS011;63793;57.632;18.292;2023-11-21T04:56:07;6.82;;;5.47;;
37843;SDS011;63793;57.632;18.292;2023-11-21T04:58:34;6.38;;;5.05;;
37843;SDS011;63793;57.632;18.292;2023-11-21T05:01:02;7.18;;;6.43;;
37843;SDS011;63793;57.632;18.292;2023-11-21T05:03:33;8.38;;;5.32;;
37843;SDS011;63793;57.632;18.292;2023-11-21T05:06:01;11.05;;;6.00;;
37843;SDS011;63793;57.632;18.292;2023-11-21T05:08:28;8.25;;;6.90;;
37843;SDS011;63793;57.632;18.292;2023-11-21T05:10:55;11.93;;;6.03;;
37843;SDS011;63793;57.632;18.292;2023-11-21T05:13:22;8.07;;;6.70;;
37843;SDS011;63793;57.632;18.292;2023-11-21T05:15:57;9.45;;;5.65;;
37843;SDS011;63793;57.632;18.292;2023-11-21T05:18:24;8.10;;;5.78;;
37843;SDS011;63793;57.632;18.292;2023-11-21T05:20:53;12.23;;;6.40;;
37843;SDS011;63793;57.632;18.292;2023-11-21T05:23:20;9.27;;;5.88;;
37843;SDS011;63793;57.632;18.292;2023-11-21T05:25:47;12.25;;;4.80;;
37843;SDS011;63793;57.632;18.292;2023-11-21T05:28:14;8.65;;;4.75;;
37843;SDS011;63793;57.632;18.292;2023-11-21T05:30:41;10.93;;;5.75;;
37843;SDS011;63793;57.632;18.292;2023-11-21T05:33:08;9.48;;;5.43;;
37843;SDS011;63793;57.632;18.292;2023-11-21T05:35:35;7.35;;;4.78;;
37843;SDS011;63793;57.632;18.292;2023-11-21T05:38:02;5.25;;;4.35;;
37843;SDS011;63793;57.632;18.292;2023-11-21T05:40:29;7.45;;;5.15;;
37843;SDS011;63793;57.632;18.292;2023-11-21T05:42:56;7.47;;;4.82;;
37843;SDS011;63793;57.632;18.292;2023-11-21T05:45:23;8.68;;;5.13;;
37843;SDS011;63793;57.632;18.292;2023-11-21T05:47:50;7.03;;;5.25;;
37843;SDS011;63793;57.632;18.292;2023-11-21T05:50:17;5.45;;;4.70;;
37843;SDS011;63793;57.632;18.292;2023-11-21T05:52:45;7.03;;;4.97;;
37843;SDS011;63793;57.632;18.292;2023-11-21T05:55:13;5.78;;;4.10;;
37843;SDS011;63793;57.632;18.292;2023-11-21T05:57:41;8.80;;;4.60;;
37843;SDS011;63793;57.632;18.292;2023-11-21T06:00:10;3.80;;;3.23;;
37843;SDS011;63793;57.632;18.292;2023-11-21T06:02:49;10.23;;;4.85;;
37843;SDS011;63793;57.632;18.292;2023-11-21T06:05:23;5.57;;;4.07;;
37843;SDS011;63793;57.632;18.292;2023-11-21T06:07:52;8.63;;;6.25;;
37843;SDS011;63793;57.632;18.292;2023-11-21T06:10:22;10.97;;;4.80;;
37843;SDS011;63793;57.632;18.292;2023-11-21T06:12:51;9.52;;;5.65;;
37843;SDS011;63793;57.632;18.292;2023-11-21T06:15:18;9.38;;;5.65;;
37843;SDS011;63793;57.632;18.292;2023-11-21T06:17:49;11.60;;;6.82;;
37843;SDS011;63793;57.632;18.292;2023-11-21T06:20:19;9.13;;;5.95;;
37843;SDS011;63793;57.632;18.292;2023-11-21T06:22:48;10.55;;;6.97;;
37843;SDS011;63793;57.632;18.292;2023-11-21T06:25:17;9.33;;;6.40;;
37843;SDS011;63793;57.632;18.292;2023-11-21T06:27:45;8.70;;;5.85;;
37843;SDS011;63793;57.632;18.292;2023-11-21T06:30:14;11.00;;;5.85;;
37843;SDS011;63793;57.632;18.292;2023-11-21T06:32:42;7.28;;;5.22;;
37843;SDS011;63793;57.632;18.292;2023-11-21T06:35:13;8.82;;;6.00;;
37843;SDS011;63793;57.632;18.292;2023-11-21T06:37:42;7.32;;;5.43;;
37843;SDS011;63793;57.632;18.292;2023-11-21T06:40:15;9.50;;;6.28;;
37843;SDS011;63793;57.632;18.292;2023-11-21T06:42:41;9.07;;;6.57;;
37843;SDS011;63793;57.632;18.292;2023-11-21T06:45:10;9.52;;;5.32;;
37843;SDS011;63793;57.632;18.292;2023-11-21T06:47:38;7.50;;;5.95;;
37843;SDS011;63793;57.632;18.292;2023-11-21T06:50:06;7.40;;;5.60;;
37843;SDS011;63793;57.632;18.292;2023-11-21T06:52:33;14.00;;;7.10;;
37843;SDS011;63793;57.632;18.292;2023-11-21T06:55:00;15.60;;;5.95;;
37843;SDS011;63793;57.632;18.292;2023-11-21T06:57:27;11.10;;;5.75;;
37843;SDS011;63793;57.632;18.292;2023-11-21T06:59:54;9.80;;;5.22;;
37843;SDS011;63793;57.632;18.292;2023-11-21T07:02:23;21.60;;;7.00;;
37843;SDS011;63793;57.632;18.292;2023-11-21T07:04:50;20.98;;;6.70;;
37843;SDS011;63793;57.632;18.292;2023-11-21T07:07:18;15.65;;;6.53;;
37843;SDS011;63793;57.632;18.292;2023-11-21T07:09:45;12.88;;;6.45;;
37843;SDS011;63793;57.632;18.292;2023-11-21T07:12:12;10.68;;;5.68;;
37843;SDS011;63793;57.632;18.292;2023-11-21T07:14:40;7.25;;;5.13;;
37843;SDS011;63793;57.632;18.292;2023-11-21T07:17:09;7.85;;;5.15;;
37843;SDS011;63793;57.632;18.292;2023-11-21T07:19:38;7.05;;;4.93;;
37843;SDS011;63793;57.632;18.292;2023-11-21T07:22:05;7.00;;;6.30;;
37843;SDS011;63793;57.632;18.292;2023-11-21T07:24:32;9.63;;;6.82;;
37843;SDS011;63793;57.632;18.292;2023-11-21T07:27:00;7.85;;;6.03;;
37843;SDS011;63793;57.632;18.292;2023-11-21T07:29:27;7.85;;;6.20;;
37843;SDS011;63793;57.632;18.292;2023-11-21T07:31:56;7.90;;;6.07;;
37843;SDS011;63793;57.632;18.292;2023-11-21T07:34:23;8.75;;;5.30;;
37843;SDS011;63793;57.632;18.292;2023-11-21T07:36:50;9.48;;;5.85;;
37843;SDS011;63793;57.632;18.292;2023-11-21T07:39:17;9.57;;;6.20;;
37843;SDS011;63793;57.632;18.292;2023-11-21T07:41:44;8.60;;;5.05;;
37843;SDS011;63793;57.632;18.292;2023-11-21T07:44:16;8.98;;;5.70;;
37843;SDS011;63793;57.632;18.292;2023-11-21T07:46:44;10.48;;;5.75;;
37843;SDS011;63793;57.632;18.292;2023-11-21T07:49:11;11.05;;;6.63;;
37843;SDS011;63793;57.632;18.292;2023-11-21T07:51:42;7.93;;;5.60;;
37843;SDS011;63793;57.632;18.292;2023-11-21T07:54:10;8.88;;;6.45;;
37843;SDS011;63793;57.632;18.292;2023-11-21T07:56:37;8.90;;;6.80;;
37843;SDS011;63793;57.632;18.292;2023-11-21T07:59:04;10.00;;;6.18;;
37843;SDS011;63793;57.632;18.292;2023-11-21T08:01:31;8.18;;;5.50;;
37843;SDS011;63793;57.632;18.292;2023-11-21T08:03:59;8.63;;;5.50;;
37843;SDS011;63793;57.632;18.292;2023-11-21T08:06:30;8.82;;;5.80;;
37843;SDS011;63793;57.632;18.292;2023-11-21T08:08:57;8.82;;;5.70;;
37843;SDS011;63793;57.632;18.292;2023-11-21T08:11:25;9.43;;;6.07;;
37843;SDS011;63793;57.632;18.292;2023-11-21T08:13:55;10.57;;;6.20;;
37843;SDS011;63793;57.632;18.292;2023-11-21T08:16:23;9.15;;;6.80;;
37843;SDS011;63793;57.632;18.292;2023-11-21T08:18:50;9.48;;;7.10;;
37843;SDS011;63793;57.632;18.292;2023-11-21T08:21:17;8.73;;;7.20;;
37843;SDS011;63793;57.632;18.292;2023-11-21T08:23:45;10.52;;;6.85;;
37843;SDS011;63793;57.632;18.292;2023-11-21T08:26:15;13.68;;;7.05;;
37843;SDS011;63793;57.632;18.292;2023-11-21T08:28:43;10.70;;;6.63;;
37843;SDS011;63793;57.632;18.292;2023-11-21T08:31:09;11.10;;;7.25;;
37843;SDS011;63793;57.632;18.292;2023-11-21T08:33:39;9.10;;;7.03;;
37843;SDS011;63793;57.632;18.292;2023-11-21T08:36:07;9.30;;;6.43;;
37843;SDS011;63793;57.632;18.292;2023-11-21T08:38:35;8.77;;;6.80;;
37843;SDS011;63793;57.632;18.292;2023-11-21T08:41:05;9.20;;;6.25;;
37843;SDS011;63793;57.632;18.292;2023-11-21T08:43:35;7.57;;;5.60;;
37843;SDS011;63793;57.632;18.292;2023-11-21T08:48:33;8.82;;;6.22;;
37843;SDS011;63793;57.632;18.292;2023-11-21T08:51:02;9.00;;;5.68;;
37843;SDS011;63793;57.632;18.292;2023-11-21T08:53:30;8.98;;;5.95;;
37843;SDS011;63793;57.632;18.292;2023-11-21T08:55:57;9.38;;;6.40;;
37843;SDS011;63793;57.632;18.292;2023-11-21T08:58:25;10.23;;;5.82;;
37843;SDS011;63793;57.632;18.292;2023-11-21T09:00:52;11.73;;;7.15;;
37843;SDS011;63793;57.632;18.292;2023-11-21T09:03:18;9.95;;;6.43;;
37843;SDS011;63793;57.632;18.292;2023-11-21T09:05:46;9.85;;;5.68;;
37843;SDS011;63793;57.632;18.292;2023-11-21T09:08:12;9.35;;;6.38;;
37843;SDS011;63793;57.632;18.292;2023-11-21T09:10:39;10.68;;;6.60;;
37843;SDS011;63793;57.632;18.292;2023-11-21T09:13:08;9.07;;;6.22;;
37843;SDS011;63793;57.632;18.292;2023-11-21T09:15:36;8.77;;;5.50;;
37843;SDS011;63793;57.632;18.292;2023-11-21T09:18:03;9.23;;;6.38;;
37843;SDS011;63793;57.632;18.292;2023-11-21T09:20:31;9.07;;;6.20;;
37843;SDS011;63793;57.632;18.292;2023-11-21T09:22:59;7.20;;;5.45;;
37843;SDS011;63793;57.632;18.292;2023-11-21T09:25:25;9.35;;;5.72;;
37843;SDS011;63793;57.632;18.292;2023-11-21T09:27:52;6.32;;;4.35;;
37843;SDS011;63793;57.632;18.292;2023-11-21T09:30:19;7.22;;;5.13;;
37843;SDS011;63793;57.632;18.292;2023-11-21T09:32:46;7.15;;;5.05;;
37843;SDS011;63793;57.632;18.292;2023-11-21T09:35:13;6.10;;;4.25;;
37843;SDS011;63793;57.632;18.292;2023-11-21T09:37:42;5.22;;;4.40;;
37843;SDS011;63793;57.632;18.292;2023-11-21T09:40:11;8.70;;;5.22;;
37843;SDS011;63793;57.632;18.292;2023-11-21T09:42:43;5.47;;;4.00;;
37843;SDS011;63793;57.632;18.292;2023-11-21T09:45:27;4.60;;;3.55;;
37843;SDS011;63793;57.632;18.292;2023-11-21T09:47:56;7.20;;;4.25;;
37843;SDS011;63793;57.632;18.292;2023-11-21T09:50:24;14.68;;;4.30;;
37843;SDS011;63793;57.632;18.292;2023-11-21T09:53:05;19.83;;;4.85;;
37843;SDS011;63793;57.632;18.292;2023-11-21T09:55:45;5.45;;;3.30;;
37843;SDS011;63793;57.632;18.292;2023-11-21T09:58:13;3.00;;;2.63;;
37843;SDS011;63793;57.632;18.292;2023-11-21T10:00:42;3.55;;;2.72;;
37843;SDS011;63793;57.632;18.292;2023-11-21T10:03:13;2.67;;;2.45;;
37843;SDS011;63793;57.632;18.292;2023-11-21T10:05:44;3.33;;;2.92;;
37843;SDS011;63793;57.632;18.292;2023-11-21T10:08:16;3.90;;;2.67;;
37843;SDS011;63793;57.632;18.292;2023-11-21T10:10:44;4.28;;;3.30;;
37843;SDS011;63793;57.632;18.292;2023-11-21T10:13:12;3.95;;;3.15;;
37843;SDS011;63793;57.632;18.292;2023-11-21T10:15:44;2.72;;;2.15;;
37843;SDS011;63793;57.632;18.292;2023-11-21T10:18:16;4.60;;;3.63;;
37843;SDS011;63793;57.632;18.292;2023-11-21T10:20:44;5.03;;;3.05;;
37843;SDS011;63793;57.632;18.292;2023-11-21T10:23:19;2.92;;;2.60;;
37843;SDS011;63793;57.632;18.292;2023-11-21T10:25:51;7.20;;;2.35;;
37843;SDS011;63793;57.632;18.292;2023-11-21T10:28:19;4.78;;;3.03;;
37843;SDS011;63793;57.632;18.292;2023-11-21T10:30:47;3.03;;;2.17;;
37843;SDS011;63793;57.632;18.292;2023-11-21T10:33:14;4.20;;;2.38;;
37843;SDS011;63793;57.632;18.292;2023-11-21T10:38:13;4.25;;;2.70;;
37843;SDS011;63793;57.632;18.292;2023-11-21T10:40:41;4.35;;;3.95;;
37843;SDS011;63793;57.632;18.292;2023-11-21T10:43:09;3.17;;;2.47;;
37843;SDS011;63793;57.632;18.292;2023-11-21T10:45:39;5.72;;;2.83;;
37843;SDS011;63793;57.632;18.292;2023-11-21T10:48:10;4.57;;;3.10;;
37843;SDS011;63793;57.632;18.292;2023-11-21T10:50:45;5.85;;;3.90;;
37843;SDS011;63793;57.632;18.292;2023-11-21T10:53:13;3.55;;;2.95;;
37843;SDS011;63793;57.632;18.292;2023-11-21T10:55:41;3.75;;;3.13;;
37843;SDS011;63793;57.632;18.292;2023-11-21T10:58:10;4.57;;;3.10;;
37843;SDS011;63793;57.632;18.292;2023-11-21T11:00:40;4.63;;;3.80;;
37843;SDS011;63793;57.632;18.292;2023-11-21T11:03:07;5.50;;;3.28;;
37843;SDS011;63793;57.632;18.292;2023-11-21T11:05:43;4.95;;;3.17;;
37843;SDS011;63793;57.632;18.292;2023-11-21T11:08:19;3.90;;;2.70;;
37843;SDS011;63793;57.632;18.292;2023-11-21T11:10:54;4.25;;;3.15;;
37843;SDS011;63793;57.632;18.292;2023-11-21T11:13:21;5.88;;;3.42;;
37843;SDS011;63793;57.632;18.292;2023-11-21T11:15:49;4.40;;;3.33;;
37843;SDS011;63793;57.632;18.292;2023-11-21T11:18:17;6.68;;;4.10;;
37843;SDS011;63793;57.632;18.292;2023-11-21T11:20:47;3.90;;;3.10;;
37843;SDS011;63793;57.632;18.292;2023-11-21T11:26:20;3.85;;;2.75;;
37843;SDS011;63793;57.632;18.292;2023-11-21T11:32:16;4.22;;;3.15;;
37843;SDS011;63793;57.632;18.292;2023-11-21T11:34:57;5.00;;;4.15;;
37843;SDS011;63793;57.632;18.292;2023-11-21T11:37:30;4.70;;;3.00;;
37843;SDS011;63793;57.632;18.292;2023-11-21T11:39:57;5.80;;;4.15;;
37843;SDS011;63793;57.632;18.292;2023-11-21T11:42:26;4.28;;;3.50;;
37843;SDS011;63793;57.632;18.292;2023-11-21T11:44:53;5.57;;;4.05;;
37843;SDS011;63793;57.632;18.292;2023-11-21T11:50:08;6.63;;;4.57;;
37843;SDS011;63793;57.632;18.292;2023-11-21T11:52:47;4.40;;;2.90;;
37843;SDS011;63793;57.632;18.292;2023-11-21T11:55:20;5.18;;;4.20;;
37843;SDS011;63793;57.632;18.292;2023-11-21T11:57:51;5.53;;;4.35;;
37843;SDS011;63793;57.632;18.292;2023-11-21T12:00:44;4.57;;;3.30;;
37843;SDS011;63793;57.632;18.292;2023-11-21T12:03:12;3.70;;;2.83;;
37843;SDS011;63793;57.632;18.292;2023-11-21T12:05:40;3.10;;;2.13;;
37843;SDS011;63793;57.632;18.292;2023-11-21T12:08:10;2.50;;;1.90;;
37843;SDS011;63793;57.632;18.292;2023-11-21T12:10:38;2.97;;;1.75;;
37843;SDS011;63793;57.632;18.292;2023-11-21T12:13:07;2.55;;;1.88;;
37843;SDS011;63793;57.632;18.292;2023-11-21T12:15:39;2.72;;;2.13;;
37843;SDS011;63793;57.632;18.292;2023-11-21T12:18:08;3.67;;;2.40;;
37843;SDS011;63793;57.632;18.292;2023-11-21T12:20:36;2.30;;;1.98;;
37843;SDS011;63793;57.632;18.292;2023-11-21T12:23:06;3.47;;;1.85;;
37843;SDS011;63793;57.632;18.292;2023-11-21T12:25:35;4.13;;;2.30;;
37843;SDS011;63793;57.632;18.292;2023-11-21T12:28:03;3.38;;;1.73;;
37843;SDS011;63793;57.632;18.292;2023-11-21T12:30:30;4.20;;;1.90;;
37843;SDS011;63793;57.632;18.292;2023-11-21T12:33:02;4.05;;;3.08;;
37843;SDS011;63793;57.632;18.292;2023-11-21T12:35:31;3.38;;;1.80;;
37843;SDS011;63793;57.632;18.292;2023-11-21T12:38:03;3.03;;;2.22;;
37843;SDS011;63793;57.632;18.292;2023-11-21T12:40:31;3.22;;;2.38;;
37843;SDS011;63793;57.632;18.292;2023-11-21T12:42:59;1.65;;;1.38;;
37843;SDS011;63793;57.632;18.292;2023-11-21T12:45:28;2.70;;;2.03;;
37843;SDS011;63793;57.632;18.292;2023-11-21T12:48:02;2.70;;;1.67;;
37843;SDS011;63793;57.632;18.292;2023-11-21T12:50:34;2.33;;;1.70;;
37843;SDS011;63793;57.632;18.292;2023-11-21T12:53:11;2.85;;;1.83;;
37843;SDS011;63793;57.632;18.292;2023-11-21T12:55:39;2.13;;;1.77;;
37843;SDS011;63793;57.632;18.292;2023-11-21T12:58:09;6.35;;;3.70;;
37843;SDS011;63793;57.632;18.292;2023-11-21T13:03:11;3.13;;;1.45;;
37843;SDS011;63793;57.632;18.292;2023-11-21T13:05:47;3.47;;;1.88;;
37843;SDS011;63793;57.632;18.292;2023-11-21T13:08:21;3.38;;;2.90;;
37843;SDS011;63793;57.632;18.292;2023-11-21T13:13:24;3.85;;;1.27;;
37843;SDS011;63793;57.632;18.292;2023-11-21T13:15:55;1.33;;;1.00;;
37843;SDS011;63793;57.632;18.292;2023-11-21T13:18:27;1.67;;;1.38;;
37843;SDS011;63793;57.632;18.292;2023-11-21T13:20:55;3.40;;;1.95;;
37843;SDS011;63793;57.632;18.292;2023-11-21T13:23:25;1.95;;;1.23;;
37843;SDS011;63793;57.632;18.292;2023-11-21T13:25:53;1.38;;;0.93;;
37843;SDS011;63793;57.632;18.292;2023-11-21T13:28:30;2.75;;;2.45;;
37843;SDS011;63793;57.632;18.292;2023-11-21T13:31:00;2.75;;;1.27;;
37843;SDS011;63793;57.632;18.292;2023-11-21T13:33:36;3.72;;;2.03;;
37843;SDS011;63793;57.632;18.292;2023-11-21T13:36:09;1.30;;;1.05;;
37843;SDS011;63793;57.632;18.292;2023-11-21T13:38:37;2.58;;;0.98;;
37843;SDS011;63793;57.632;18.292;2023-11-21T13:41:09;0.88;;;0.80;;
37843;SDS011;63793;57.632;18.292;2023-11-21T13:43:38;1.65;;;1.17;;
37843;SDS011;63793;57.632;18.292;2023-11-21T13:46:06;2.65;;;1.85;;
37843;SDS011;63793;57.632;18.292;2023-11-21T13:48:48;1.48;;;1.17;;
37843;SDS011;63793;57.632;18.292;2023-11-21T13:51:23;3.67;;;1.45;;
37843;SDS011;63793;57.632;18.292;2023-11-21T13:54:03;2.05;;;1.77;;
37843;SDS011;63793;57.632;18.292;2023-11-21T13:56:36;2.40;;;2.17;;
37843;SDS011;63793;57.632;18.292;2023-11-21T13:59:03;1.48;;;1.20;;
37843;SDS011;63793;57.632;18.292;2023-11-21T14:01:41;1.92;;;1.50;;
37843;SDS011;63793;57.632;18.292;2023-11-21T14:04:21;4.07;;;2.00;;
37843;SDS011;63793;57.632;18.292;2023-11-21T14:07:06;1.80;;;1.35;;
37843;SDS011;63793;57.632;18.292;2023-11-21T14:09:51;2.70;;;2.47;;
37843;SDS011;63793;57.632;18.292;2023-11-21T14:12:20;3.03;;;1.95;;
37843;SDS011;63793;57.632;18.292;2023-11-21T14:14:47;3.53;;;1.55;;
37843;SDS011;63793;57.632;18.292;2023-11-21T14:17:15;2.50;;;2.10;;
37843;SDS011;63793;57.632;18.292;2023-11-21T14:19:42;2.75;;;1.55;;
37843;SDS011;63793;57.632;18.292;2023-11-21T14:22:10;4.03;;;1.55;;
37843;SDS011;63793;57.632;18.292;2023-11-21T14:24:37;1.83;;;1.73;;
37843;SDS011;63793;57.632;18.292;2023-11-21T14:27:10;1.77;;;1.38;;
37843;SDS011;63793;57.632;18.292;2023-11-21T14:29:37;2.17;;;1.77;;
37843;SDS011;63793;57.632;18.292;2023-11-21T14:32:06;2.22;;;1.50;;
37843;SDS011;63793;57.632;18.292;2023-11-21T14:34:34;2.20;;;1.67;;
37843;SDS011;63793;57.632;18.292;2023-11-21T14:37:01;3.35;;;2.15;;
37843;SDS011;63793;57.632;18.292;2023-11-21T14:39:29;2.72;;;1.83;;
37843;SDS011;63793;57.632;18.292;2023-11-21T14:41:56;2.50;;;1.67;;
37843;SDS011;63793;57.632;18.292;2023-11-21T14:44:24;2.75;;;1.88;;
37843;SDS011;63793;57.632;18.292;2023-11-21T14:46:55;2.78;;;1.30;;
37843;SDS011;63793;57.632;18.292;2023-11-21T14:49:24;2.17;;;1.30;;
37843;SDS011;63793;57.632;18.292;2023-11-21T14:51:54;1.85;;;1.33;;
37843;SDS011;63793;57.632;18.292;2023-11-21T14:54:24;1.30;;;0.95;;
37843;SDS011;63793;57.632;18.292;2023-11-21T14:57:06;3.25;;;1.48;;
37843;SDS011;63793;57.632;18.292;2023-11-21T14:59:43;1.75;;;1.08;;
37843;SDS011;63793;57.632;18.292;2023-11-21T15:02:17;1.80;;;1.50;;
37843;SDS011;63793;57.632;18.292;2023-11-21T15:04:49;8.88;;;2.05;;